Time;durP1;ratioP1;P1;durP2;ratioP2;P2;SDS_P1;SDS_P2;PMS_P1;PMS_P2;Temp;Humidity;BMP_temperature;BMP_pressure;BME280_temperature;BME280_humidity;BME280_pressure;Samples;Min_cycle;Max_cycle;Signal;HPM_P1;HPM_P2
2021/08/04 00:00:21;;;;;;;4.90;3.33;;;16.50;99.90;;;;;;4979470;28;20216;-80
2021/08/04 00:02:48;;;;;;;5.60;2.97;;;16.40;99.90;;;;;;4980228;28;20269;-80
2021/08/04 00:05:15;;;;;;;4.25;3.38;;;16.60;99.90;;;;;;4978801;28;20700;-80
2021/08/04 00:07:42;;;;;;;4.10;3.20;;;16.50;99.90;;;;;;4972082;28;20210;-80
2021/08/04 00:10:11;;;;;;;4.80;3.42;;;16.60;99.90;;;;;;4976288;28;20248;-80
2021/08/04 00:12:38;;;;;;;6.22;3.45;;;16.60;99.90;;;;;;4968005;28;20234;-81
2021/08/04 00:15:05;;;;;;;4.50;3.33;;;16.60;99.90;;;;;;4975618;28;20214;-80
2021/08/04 00:17:32;;;;;;;4.55;3.13;;;16.50;99.90;;;;;;4971612;28;20270;-80
2021/08/04 00:19:59;;;;;;;5.35;3.40;;;16.50;99.90;;;;;;4967536;28;20273;-80
2021/08/04 00:22:26;;;;;;;4.63;3.33;;;16.40;99.90;;;;;;4973830;28;20749;-80
2021/08/04 00:24:53;;;;;;;3.72;2.92;;;16.40;99.90;;;;;;4968709;28;20575;-80
2021/08/04 00:27:21;;;;;;;3.20;2.67;;;16.30;99.90;;;;;;4970960;28;20314;-80
2021/08/04 00:29:48;;;;;;;4.35;2.92;;;16.30;99.90;;;;;;4969887;28;20236;-80
2021/08/04 00:32:14;;;;;;;9.60;3.45;;;16.20;99.90;;;;;;4974824;28;20202;-80
2021/08/04 00:34:41;;;;;;;4.35;3.03;;;16.30;99.90;;;;;;4970860;28;20215;-81
2021/08/04 00:37:08;;;;;;;5.32;3.08;;;16.30;99.90;;;;;;4980462;28;20248;-80
2021/08/04 00:39:35;;;;;;;3.50;3.17;;;16.30;99.90;;;;;;4981942;28;20201;-80
2021/08/04 00:42:02;;;;;;;3.88;2.90;;;16.20;99.90;;;;;;4979975;28;20232;-80
2021/08/04 00:44:30;;;;;;;3.33;3.03;;;16.30;99.90;;;;;;4982779;28;20213;-80
2021/08/04 00:46:57;;;;;;;3.03;2.83;;;16.20;99.90;;;;;;4977833;28;20230;-81
2021/08/04 00:49:24;;;;;;;3.95;3.00;;;16.40;99.90;;;;;;4979654;28;20265;-80
2021/08/04 00:51:51;;;;;;;4.15;2.83;;;16.20;99.90;;;;;;4979443;28;20732;-80
2021/08/04 00:54:18;;;;;;;5.72;3.22;;;16.30;99.90;;;;;;4973235;28;20229;-80
2021/08/04 00:56:44;;;;;;;4.15;3.22;;;16.30;99.90;;;;;;4969629;28;20665;-80
2021/08/04 00:59:13;;;;;;;3.65;3.28;;;16.40;99.90;;;;;;4979938;28;20266;-80
2021/08/04 01:01:48;;;;;;;3.72;2.97;;;16.40;99.90;;;;;;4978867;28;20249;-81
2021/08/04 01:04:20;;;;;;;3.08;2.80;;;16.40;99.90;;;;;;4979650;28;20277;-80
2021/08/04 01:06:55;;;;;;;6.70;3.15;;;16.50;99.90;;;;;;4968400;28;20221;-80
2021/08/04 01:09:24;;;;;;;4.05;2.90;;;16.50;99.90;;;;;;4979039;28;20269;-80
2021/08/04 01:11:58;;;;;;;4.35;3.00;;;16.40;99.90;;;;;;4982366;28;20289;-80
2021/08/04 01:14:28;;;;;;;4.60;3.30;;;16.50;99.90;;;;;;4980197;28;20274;-80
2021/08/04 01:16:56;;;;;;;4.30;3.35;;;16.40;99.90;;;;;;4982719;28;20229;-80
2021/08/04 01:19:38;;;;;;;4.40;3.10;;;16.30;99.90;;;;;;4978260;28;20210;-80
2021/08/04 01:22:20;;;;;;;6.22;3.10;;;16.20;99.90;;;;;;4982316;28;20241;-80
2021/08/04 01:24:54;;;;;;;4.57;3.65;;;16.20;99.90;;;;;;4977498;28;20260;-80
2021/08/04 01:27:23;;;;;;;5.95;3.60;;;16.30;99.90;;;;;;4981782;28;20713;-80
2021/08/04 01:29:52;;;;;;;4.57;3.22;;;16.20;99.90;;;;;;4980337;28;20233;-80
2021/08/04 01:32:21;;;;;;;4.15;3.72;;;16.10;99.90;;;;;;4981538;28;20197;-80
2021/08/04 01:34:50;;;;;;;3.60;3.03;;;16.10;99.90;;;;;;4989395;28;20777;-80
2021/08/04 01:37:18;;;;;;;3.30;3.00;;;16.20;99.90;;;;;;4982117;28;20286;-80
2021/08/04 01:39:45;;;;;;;4.70;3.25;;;16.10;99.90;;;;;;4966750;28;20235;-80
2021/08/04 01:42:13;;;;;;;4.05;3.15;;;16.10;99.90;;;;;;4972435;28;20221;-80
2021/08/04 01:44:41;;;;;;;4.57;3.00;;;16.10;99.90;;;;;;4979385;28;20586;-80
2021/08/04 01:47:09;;;;;;;4.43;3.03;;;16.20;99.90;;;;;;4982341;28;20239;-80
2021/08/04 01:49:37;;;;;;;4.17;3.37;;;16.30;99.90;;;;;;4979762;28;20233;-80
2021/08/04 01:52:04;;;;;;;6.47;3.77;;;16.30;99.90;;;;;;4982382;28;20281;-80
2021/08/04 01:54:32;;;;;;;3.22;2.92;;;16.30;99.90;;;;;;4973319;28;20712;-80
2021/08/04 01:56:59;;;;;;;4.00;3.13;;;16.20;99.90;;;;;;4965846;28;20324;-80
2021/08/04 01:59:25;;;;;;;4.25;3.30;;;16.10;99.90;;;;;;4978666;28;20201;-80
2021/08/04 02:02:13;;;;;;;3.45;3.15;;;16.20;99.90;;;;;;4978612;28;20244;-80
2021/08/04 02:04:40;;;;;;;3.83;3.10;;;16.10;99.90;;;;;;4980204;28;20740;-80
2021/08/04 02:07:13;;;;;;;7.20;3.22;;;16.10;99.90;;;;;;4981007;28;20253;-80
2021/08/04 02:09:48;;;;;;;4.35;2.90;;;16.00;99.90;;;;;;4976586;28;20209;-80
2021/08/04 02:12:15;;;;;;;4.05;3.20;;;16.00;99.90;;;;;;4964565;28;20280;-81
2021/08/04 02:14:46;;;;;;;4.88;3.50;;;16.00;99.90;;;;;;4977913;28;20242;-81
2021/08/04 02:17:21;;;;;;;6.43;3.20;;;16.00;99.90;;;;;;4977643;28;20697;-81
2021/08/04 02:19:54;;;;;;;4.90;3.50;;;16.00;99.90;;;;;;4980894;28;20665;-81
2021/08/04 02:22:27;;;;;;;3.00;2.80;;;16.10;99.90;;;;;;4979965;28;20235;-81
2021/08/04 02:25:01;;;;;;;3.58;2.88;;;16.10;99.90;;;;;;4982918;28;20297;-81
2021/08/04 02:27:29;;;;;;;3.92;3.10;;;16.00;99.90;;;;;;4966900;28;20234;-81
2021/08/04 02:29:58;;;;;;;4.57;3.22;;;16.00;99.90;;;;;;4967257;28;20281;-81
2021/08/04 02:32:26;;;;;;;5.57;3.63;;;15.90;99.90;;;;;;4969132;28;20415;-81
2021/08/04 02:34:53;;;;;;;5.72;3.55;;;16.10;99.90;;;;;;4964391;28;20650;-81
2021/08/04 02:37:20;;;;;;;5.20;3.45;;;16.10;99.90;;;;;;4970997;28;20316;-81
2021/08/04 02:39:47;;;;;;;4.57;3.70;;;16.00;99.90;;;;;;4981800;28;20653;-81
2021/08/04 02:42:14;;;;;;;5.57;3.65;;;16.00;99.90;;;;;;4963506;28;20206;-81
2021/08/04 02:44:41;;;;;;;3.95;3.45;;;16.10;99.90;;;;;;4969969;28;20543;-81
2021/08/04 02:47:09;;;;;;;4.43;3.60;;;16.10;99.90;;;;;;4965142;28;20229;-81
2021/08/04 02:49:37;;;;;;;4.28;3.60;;;16.00;99.90;;;;;;4975978;28;20240;-81
2021/08/04 02:52:05;;;;;;;4.63;3.63;;;16.00;99.90;;;;;;4966035;28;20206;-81
2021/08/04 02:54:32;;;;;;;4.03;3.60;;;15.90;99.90;;;;;;4977462;28;20233;-81
2021/08/04 02:56:59;;;;;;;4.40;3.42;;;15.90;99.90;;;;;;4978520;28;20698;-81
2021/08/04 02:59:26;;;;;;;6.28;3.67;;;15.90;99.90;;;;;;4967458;28;20205;-81
2021/08/04 03:01:53;;;;;;;3.85;3.45;;;16.00;99.90;;;;;;4976353;28;20661;-81
2021/08/04 03:04:19;;;;;;;6.22;3.58;;;15.90;99.90;;;;;;4974642;28;20693;-81
2021/08/04 03:06:47;;;;;;;4.07;3.30;;;15.90;99.90;;;;;;4978512;28;20265;-81
2021/08/04 03:09:14;;;;;;;5.20;3.78;;;16.00;99.90;;;;;;4968761;28;20292;-81
2021/08/04 03:11:41;;;;;;;4.40;3.70;;;16.00;99.90;;;;;;4975374;28;20201;-81
2021/08/04 03:14:08;;;;;;;5.70;3.30;;;15.90;99.90;;;;;;4971469;28;20237;-81
2021/08/04 03:16:35;;;;;;;4.60;3.60;;;15.90;99.90;;;;;;4964346;28;20290;-81
2021/08/04 03:19:02;;;;;;;5.05;3.65;;;15.80;99.90;;;;;;4970135;28;20246;-81
2021/08/04 03:21:29;;;;;;;5.28;3.92;;;15.80;99.90;;;;;;4965251;28;20202;-81
2021/08/04 03:23:57;;;;;;;4.13;3.72;;;15.70;99.90;;;;;;4971278;28;20202;-81
2021/08/04 03:26:24;;;;;;;6.83;4.23;;;15.70;99.90;;;;;;4967887;28;20310;-81
2021/08/04 03:28:50;;;;;;;6.60;3.90;;;15.70;99.90;;;;;;4969081;28;20283;-81
2021/08/04 03:31:17;;;;;;;7.10;3.90;;;15.70;99.90;;;;;;4961999;28;20313;-81
2021/08/04 03:33:44;;;;;;;4.43;3.60;;;15.70;99.90;;;;;;4972218;28;20207;-81
2021/08/04 03:36:11;;;;;;;4.28;3.83;;;15.70;99.90;;;;;;4967309;28;20321;-81
2021/08/04 03:38:38;;;;;;;5.83;3.70;;;15.80;99.90;;;;;;4975318;28;20304;-79
2021/08/04 03:41:07;;;;;;;6.67;3.77;;;15.70;99.90;;;;;;4966107;28;20669;-80
2021/08/04 03:43:33;;;;;;;16.67;9.40;;;15.80;99.90;;;;;;4969001;28;20230;-80
2021/08/04 03:46:00;;;;;;;7.20;5.17;;;15.80;99.90;;;;;;4972525;28;20458;-80
2021/08/04 03:48:27;;;;;;;5.90;3.97;;;15.80;99.90;;;;;;4969113;28;20248;-80
2021/08/04 03:50:54;;;;;;;4.18;3.78;;;15.70;99.90;;;;;;4966627;28;20203;-80
2021/08/04 03:53:21;;;;;;;6.13;3.70;;;15.70;99.90;;;;;;4968687;28;20282;-80
2021/08/04 03:55:48;;;;;;;4.65;3.75;;;15.80;99.90;;;;;;4977589;28;20249;-80
2021/08/04 03:58:16;;;;;;;8.80;6.63;;;15.80;99.90;;;;;;4974073;28;20238;-80
2021/08/04 04:00:43;;;;;;;7.97;4.88;;;15.80;99.90;;;;;;4970118;28;20245;-80
2021/08/04 04:03:10;;;;;;;6.10;4.72;;;15.80;99.90;;;;;;4965350;28;20257;-79
2021/08/04 04:05:37;;;;;;;5.13;4.33;;;15.70;99.90;;;;;;4975392;28;20312;-80
2021/08/04 04:08:05;;;;;;;7.63;4.93;;;15.80;99.90;;;;;;4987740;28;20374;-80
2021/08/04 04:10:32;;;;;;;5.97;4.30;;;15.70;99.90;;;;;;4993920;28;20214;-80
2021/08/04 04:12:58;;;;;;;7.43;4.53;;;15.80;99.90;;;;;;4971885;28;20234;-80
2021/08/04 04:15:27;;;;;;;5.20;4.00;;;15.60;99.90;;;;;;4965698;29;20301;-80
2021/08/04 04:17:53;;;;;;;7.97;4.27;;;15.60;99.90;;;;;;4966513;28;20221;-80
2021/08/04 04:20:20;;;;;;;5.17;4.47;;;15.60;99.90;;;;;;4966008;29;20723;-80
2021/08/04 04:22:47;;;;;;;5.30;4.10;;;15.70;99.90;;;;;;4967266;28;20265;-80
2021/08/04 04:25:16;;;;;;;4.93;4.20;;;15.70;99.90;;;;;;4970209;28;20212;-80
2021/08/04 04:27:45;;;;;;;5.68;4.00;;;15.80;99.90;;;;;;4967983;28;20216;-80
2021/08/04 04:30:12;;;;;;;5.25;4.20;;;15.80;99.90;;;;;;4967634;28;20214;-80
2021/08/04 04:32:41;;;;;;;6.28;4.30;;;15.80;99.90;;;;;;4966658;28;20214;-80
2021/08/04 04:35:08;;;;;;;8.63;4.50;;;15.90;99.90;;;;;;4976427;28;20211;-80
2021/08/04 04:37:35;;;;;;;6.57;4.10;;;15.80;99.90;;;;;;4980917;28;20206;-80
2021/08/04 04:40:02;;;;;;;7.22;4.35;;;15.80;99.90;;;;;;4971955;28;20209;-80
2021/08/04 04:42:29;;;;;;;6.72;3.80;;;15.80;99.90;;;;;;4993573;28;20797;-79
2021/08/04 04:44:56;;;;;;;7.07;4.63;;;15.90;99.90;;;;;;4979168;28;20198;-80
2021/08/04 04:47:22;;;;;;;4.82;4.30;;;15.80;99.90;;;;;;4980509;28;20233;-79
2021/08/04 04:49:51;;;;;;;6.03;4.53;;;15.90;99.90;;;;;;4981290;28;20205;-79
2021/08/04 04:52:17;;;;;;;5.93;4.35;;;15.80;99.90;;;;;;4988815;28;20569;-79
2021/08/04 04:54:44;;;;;;;6.18;4.38;;;15.80;99.90;;;;;;4979779;28;20284;-78
2021/08/04 04:57:11;;;;;;;5.82;4.22;;;15.90;99.90;;;;;;4978637;28;20650;-80
2021/08/04 04:59:38;;;;;;;6.07;4.00;;;15.90;99.90;;;;;;4979271;28;20244;-79
2021/08/04 05:02:05;;;;;;;6.57;4.18;;;15.90;99.90;;;;;;4978909;28;20205;-79
2021/08/04 05:04:32;;;;;;;8.43;4.70;;;15.90;99.90;;;;;;4978887;28;20249;-80
2021/08/04 05:07:00;;;;;;;6.00;4.65;;;15.90;99.90;;;;;;4983932;28;20229;-80
2021/08/04 05:09:27;;;;;;;7.60;4.38;;;15.90;99.90;;;;;;4985501;28;20209;-79
2021/08/04 05:11:54;;;;;;;6.07;4.13;;;15.90;99.90;;;;;;4984671;28;20244;-80
2021/08/04 05:14:21;;;;;;;6.80;4.35;;;16.00;99.90;;;;;;4984444;28;20676;-79
2021/08/04 05:16:48;;;;;;;8.07;4.20;;;16.00;99.90;;;;;;4985483;28;20236;-80
2021/08/04 05:19:15;;;;;;;5.55;4.32;;;16.10;99.90;;;;;;4985052;28;20198;-79
2021/08/04 05:21:41;;;;;;;5.00;3.90;;;16.20;99.90;;;;;;4984910;28;20242;-79
2021/08/04 05:24:10;;;;;;;5.38;4.55;;;16.20;99.90;;;;;;4985367;28;20217;-79
2021/08/04 05:26:37;;;;;;;9.00;4.50;;;16.20;99.90;;;;;;4985357;28;20222;-79
2021/08/04 05:29:04;;;;;;;5.40;4.18;;;16.20;99.90;;;;;;4985512;28;20202;-79
2021/08/04 05:31:31;;;;;;;5.55;4.57;;;16.30;99.90;;;;;;4985532;28;20205;-79
2021/08/04 05:33:58;;;;;;;6.70;4.45;;;16.30;99.90;;;;;;4985651;28;20206;-79
2021/08/04 05:36:24;;;;;;;7.30;4.53;;;16.30;99.90;;;;;;4985327;28;20228;-80
2021/08/04 05:38:53;;;;;;;6.10;4.13;;;16.30;99.90;;;;;;4985107;28;20206;-80
2021/08/04 05:41:21;;;;;;;6.25;4.93;;;16.40;99.90;;;;;;4985296;28;20205;-79
2021/08/04 05:43:48;;;;;;;7.55;4.40;;;16.30;99.90;;;;;;4984978;28;20289;-79
2021/08/04 05:46:15;;;;;;;6.40;3.90;;;16.40;99.90;;;;;;4984951;28;20233;-80
2021/08/04 05:48:42;;;;;;;6.60;4.68;;;16.50;99.90;;;;;;4984631;28;20205;-79
2021/08/04 05:51:09;;;;;;;5.22;4.57;;;16.60;99.90;;;;;;4983732;28;20264;-80
2021/08/04 05:53:36;;;;;;;8.13;4.57;;;16.70;99.90;;;;;;4983969;28;20210;-79
2021/08/04 05:56:02;;;;;;;5.30;4.22;;;16.70;99.90;;;;;;4984445;28;20226;-79
2021/08/04 05:58:31;;;;;;;7.55;4.38;;;17.00;99.90;;;;;;4984063;28;20204;-80
2021/08/04 06:00:58;;;;;;;4.50;4.07;;;16.90;99.90;;;;;;4984038;28;20210;-79
2021/08/04 06:03:24;;;;;;;6.32;4.10;;;17.10;99.90;;;;;;4983699;28;20222;-80
2021/08/04 06:05:51;;;;;;;6.35;3.95;;;17.20;99.90;;;;;;4983737;28;20241;-79
2021/08/04 06:08:18;;;;;;;6.15;4.00;;;17.10;99.90;;;;;;4983600;28;20233;-79
2021/08/04 06:10:45;;;;;;;4.28;3.83;;;17.20;99.90;;;;;;4983542;28;20205;-79
2021/08/04 06:13:12;;;;;;;5.00;3.70;;;17.20;99.90;;;;;;4983708;28;20210;-79
2021/08/04 06:15:40;;;;;;;6.00;3.85;;;17.30;99.90;;;;;;4983661;28;20253;-79
2021/08/04 06:18:07;;;;;;;5.18;4.13;;;17.50;99.90;;;;;;4983920;28;20317;-79
2021/08/04 06:20:34;;;;;;;5.18;4.20;;;17.50;99.90;;;;;;4983741;28;20259;-79
2021/08/04 06:23:01;;;;;;;4.72;3.60;;;17.50;99.90;;;;;;4985140;28;20256;-80
2021/08/04 06:25:28;;;;;;;4.20;3.50;;;17.40;99.90;;;;;;4984635;28;20244;-79
2021/08/04 06:27:55;;;;;;;6.22;4.25;;;17.30;99.90;;;;;;4984121;28;20209;-80
2021/08/04 06:30:22;;;;;;;4.55;3.50;;;17.40;99.90;;;;;;4982449;28;20260;-79
2021/08/04 06:32:50;;;;;;;5.97;3.92;;;17.50;99.90;;;;;;4981991;28;20202;-80
2021/08/04 06:35:17;;;;;;;5.72;3.95;;;17.70;99.90;;;;;;4981962;28;20312;-80
2021/08/04 06:37:44;;;;;;;4.45;3.53;;;17.70;99.90;;;;;;4976985;28;20206;-79
2021/08/04 06:40:12;;;;;;;5.97;4.00;;;17.80;99.90;;;;;;4982457;28;20683;-79
2021/08/04 06:42:39;;;;;;;7.68;4.15;;;17.90;99.90;;;;;;4980865;28;20292;-79
2021/08/04 06:45:07;;;;;;;5.55;4.15;;;17.90;99.90;;;;;;4997674;28;20207;-79
2021/08/04 06:47:34;;;;;;;6.85;4.25;;;17.70;99.90;;;;;;4989033;28;20229;-79
2021/08/04 06:50:03;;;;;;;7.13;4.10;;;17.80;99.90;;;;;;4986463;28;20240;-79
2021/08/04 06:52:30;;;;;;;5.40;4.00;;;18.00;99.90;;;;;;5024748;23;20243;-87
2021/08/04 06:54:57;;;;;;;5.35;4.07;;;18.00;99.90;;;;;;4994134;28;20201;-87
2021/08/04 06:57:23;;;;;;;4.97;3.92;;;17.90;99.90;;;;;;5002433;28;20204;-87
2021/08/04 06:59:50;;;;;;;8.27;4.18;;;17.90;99.90;;;;;;5011629;28;20299;-87
2021/08/04 07:02:37;;;;;;;5.38;4.22;;;18.10;99.90;;;;;;5004166;28;20632;-87
2021/08/04 07:05:11;;;;;;;6.47;4.40;;;18.20;99.90;;;;;;4999817;28;20205;-86
2021/08/04 07:07:41;;;;;;;5.75;3.95;;;18.30;99.90;;;;;;5021977;28;20203;-87
2021/08/04 07:10:12;;;;;;;4.80;4.03;;;18.50;99.90;;;;;;5035779;28;20583;-86
2021/08/04 07:12:44;;;;;;;8.45;4.32;;;18.50;99.90;;;;;;5021736;28;20247;-87
2021/08/04 07:15:12;;;;;;;7.15;3.97;;;18.50;99.90;;;;;;5006533;28;20299;-86
2021/08/04 07:17:45;;;;;;;8.07;3.78;;;18.30;99.90;;;;;;5003495;28;20619;-88
2021/08/04 07:20:15;;;;;;;5.85;3.60;;;18.30;99.90;;;;;;5003200;28;20284;-86
2021/08/04 07:22:42;;;;;;;4.22;3.58;;;18.50;99.90;;;;;;5023789;28;20228;-86
2021/08/04 07:25:10;;;;;;;4.40;3.70;;;18.60;99.90;;;;;;5016358;28;20300;-87
2021/08/04 07:27:38;;;;;;;4.68;3.70;;;18.50;99.90;;;;;;5015493;28;20704;-87
2021/08/04 07:30:07;;;;;;;4.55;3.60;;;18.70;99.90;;;;;;5016512;28;20212;-87
2021/08/04 07:32:34;;;;;;;5.32;3.40;;;18.70;99.90;;;;;;5015962;28;20311;-87
2021/08/04 07:35:01;;;;;;;7.00;3.72;;;18.80;99.90;;;;;;5015849;28;20708;-86
2021/08/04 07:37:30;;;;;;;6.45;3.80;;;18.80;99.90;;;;;;5019889;28;20210;-87
2021/08/04 07:40:04;;;;;;;5.38;3.55;;;19.00;99.90;;;;;;5017749;28;20612;-88
2021/08/04 07:42:31;;;;;;;5.32;4.53;;;19.00;99.90;;;;;;5031932;23;20237;-79
2021/08/04 07:44:58;;;;;;;6.13;3.70;;;19.00;99.90;;;;;;5043675;28;20237;-81
2021/08/04 07:47:25;;;;;;;4.22;3.53;;;19.10;99.90;;;;;;5016834;28;20248;-80
2021/08/04 07:49:51;;;;;;;5.85;4.10;;;19.20;99.90;;;;;;5026420;28;20203;-82
2021/08/04 07:52:18;;;;;;;4.40;3.83;;;19.40;99.90;;;;;;5025777;28;20643;-81
2021/08/04 07:54:46;;;;;;;3.95;3.28;;;19.40;99.90;;;;;;5026992;28;20240;-81
2021/08/04 07:57:13;;;;;;;5.35;3.85;;;19.30;99.90;;;;;;5024890;28;20256;-80
2021/08/04 07:59:40;;;;;;;5.68;3.97;;;19.10;99.90;;;;;;5025654;28;20288;-81
2021/08/04 08:02:07;;;;;;;4.32;3.45;;;18.90;99.90;;;;;;5025954;28;20288;-81
2021/08/04 08:04:35;;;;;;;6.55;3.55;;;19.10;99.90;;;;;;5018819;28;20272;-84
2021/08/04 08:07:02;;;;;;;5.47;3.58;;;19.20;99.90;;;;;;5027784;28;20231;-83
2021/08/04 08:09:29;;;;;;;5.53;3.63;;;19.40;99.90;;;;;;5024725;28;20227;-82
2021/08/04 08:12:00;;;;;;;5.68;3.55;;;19.30;99.90;;;;;;5023590;28;20268;-82
2021/08/04 08:14:28;;;;;;;5.80;4.00;;;19.30;99.90;;;;;;5028805;28;20715;-82
2021/08/04 08:16:56;;;;;;;4.43;3.20;;;19.50;99.90;;;;;;5024020;28;20342;-81
2021/08/04 08:19:23;;;;;;;4.78;3.20;;;19.60;99.90;;;;;;5017070;28;20653;-84
2021/08/04 08:21:50;;;;;;;3.92;3.50;;;19.80;99.90;;;;;;5007033;28;20296;-80
2021/08/04 08:24:17;;;;;;;5.22;3.50;;;19.90;99.90;;;;;;5007290;28;20228;-83
2021/08/04 08:26:44;;;;;;;5.03;3.30;;;19.80;99.90;;;;;;5014247;28;20232;-82
2021/08/04 08:29:13;;;;;;;3.92;3.50;;;20.00;99.90;;;;;;5008893;28;20229;-81
2021/08/04 08:31:39;;;;;;;7.55;3.92;;;20.00;99.90;;;;;;5008227;28;20272;-81
2021/08/04 08:34:07;;;;;;;5.00;3.20;;;20.10;99.90;;;;;;5022760;28;20236;-82
2021/08/04 08:36:36;;;;;;;6.88;3.65;;;19.90;99.90;;;;;;5014865;28;20223;-81
2021/08/04 08:39:05;;;;;;;5.90;3.50;;;19.90;99.90;;;;;;5013472;28;20208;-82
2021/08/04 08:41:32;;;;;;;3.28;2.92;;;20.00;99.90;;;;;;5016841;28;20227;-80
2021/08/04 08:43:59;;;;;;;4.75;3.15;;;20.20;99.90;;;;;;5014912;28;20306;-83
2021/08/04 08:46:30;;;;;;;3.28;2.90;;;20.00;99.90;;;;;;5016562;28;20939;-80
2021/08/04 08:48:58;;;;;;;4.10;3.22;;;20.20;99.90;;;;;;5007658;28;20289;-81
2021/08/04 08:51:26;;;;;;;5.97;3.38;;;20.10;99.90;;;;;;5008954;28;20280;-83
2021/08/04 08:53:53;;;;;;;5.32;4.13;;;20.30;99.90;;;;;;5020497;28;20523;-80
2021/08/04 08:56:21;;;;;;;5.45;3.70;;;20.00;99.90;;;;;;5018886;28;20296;-83
2021/08/04 08:58:48;;;;;;;5.28;4.05;;;20.10;99.90;;;;;;5013573;28;20680;-83
2021/08/04 09:01:16;;;;;;;4.85;4.35;;;20.20;99.90;;;;;;5002178;28;20287;-83
2021/08/04 09:03:44;;;;;;;5.72;3.88;;;20.20;99.90;;;;;;5018199;28;20283;-84
2021/08/04 09:06:11;;;;;;;7.25;3.95;;;20.40;99.90;;;;;;5011578;28;20284;-85
2021/08/04 09:08:39;;;;;;;6.65;3.80;;;20.20;99.90;;;;;;5020690;28;20235;-83
2021/08/04 09:11:12;;;;;;;5.82;3.85;;;20.40;99.90;;;;;;5018368;28;20211;-84
2021/08/04 09:13:39;;;;;;;5.75;4.00;;;20.40;99.90;;;;;;5018269;28;20668;-81
2021/08/04 09:16:07;;;;;;;4.32;3.72;;;20.40;99.90;;;;;;5006415;28;20574;-81
2021/08/04 09:18:43;;;;;;;4.63;4.13;;;20.20;99.90;;;;;;5017650;28;20228;-83
2021/08/04 09:21:11;;;;;;;5.88;4.20;;;20.60;99.90;;;;;;5002784;28;20289;-84
2021/08/04 09:23:44;;;;;;;5.85;3.65;;;20.60;99.90;;;;;;5016083;28;20267;-81
2021/08/04 09:26:13;;;;;;;4.93;4.28;;;20.70;99.90;;;;;;5019532;28;20221;-80
2021/08/04 09:28:59;;;;;;;5.22;4.10;;;20.60;99.90;;;;;;5022212;28;20235;-82
2021/08/04 09:31:48;;;;;;;4.95;4.07;;;20.80;99.90;;;;;;5017250;28;20295;-84
2021/08/04 09:34:35;;;;;;;5.97;4.00;;;20.90;99.90;;;;;;5013379;28;20280;-81
2021/08/04 09:37:07;;;;;;;4.70;3.83;;;21.00;99.90;;;;;;5004396;28;20208;-82
2021/08/04 09:39:36;;;;;;;4.55;3.67;;;20.90;99.90;;;;;;5018681;28;20537;-81
2021/08/04 09:42:04;;;;;;;4.15;3.55;;;21.00;99.90;;;;;;5019360;28;20295;-81
2021/08/04 09:44:31;;;;;;;4.45;3.50;;;21.00;99.90;;;;;;5018417;28;20707;-82
2021/08/04 09:47:09;;;;;;;4.38;3.97;;;21.20;99.90;;;;;;5019951;28;20243;-83
2021/08/04 09:49:36;;;;;;;5.25;3.45;;;21.10;99.90;;;;;;5003608;28;20303;-81
2021/08/04 09:52:10;;;;;;;5.25;4.00;;;21.40;99.90;;;;;;5003657;28;20590;-82
2021/08/04 09:54:38;;;;;;;5.35;3.70;;;21.20;99.90;;;;;;5003354;28;20239;-83
2021/08/04 09:57:06;;;;;;;6.05;3.72;;;21.50;99.90;;;;;;5003739;28;20303;-82
2021/08/04 09:59:33;;;;;;;6.50;3.97;;;21.60;99.90;;;;;;5019033;28;20712;-83
2021/08/04 10:02:02;;;;;;;5.97;3.33;;;21.70;99.90;;;;;;5014751;28;20480;-81
2021/08/04 10:04:29;;;;;;;5.10;3.80;;;21.80;99.90;;;;;;5015423;28;20288;-82
2021/08/04 10:07:05;;;;;;;7.18;3.53;;;21.80;99.90;;;;;;5022466;28;20224;-83
2021/08/04 10:09:34;;;;;;;4.30;3.90;;;22.20;99.90;;;;;;5017247;28;20199;-82
2021/08/04 10:12:02;;;;;;;5.22;3.85;;;22.40;99.90;;;;;;5018180;28;20208;-82
2021/08/04 10:14:29;;;;;;;6.13;4.03;;;22.60;99.90;;;;;;5021448;28;20455;-83
2021/08/04 10:16:56;;;;;;;6.13;3.90;;;22.70;99.90;;;;;;5010731;28;20255;-82
2021/08/04 10:19:26;;;;;;;6.35;4.38;;;22.50;99.90;;;;;;5041324;28;20234;-84
2021/08/04 10:21:54;;;;;;;4.18;3.78;;;22.50;99.90;;;;;;5034638;28;20264;-81
2021/08/04 10:24:21;;;;;;;4.32;3.88;;;22.70;99.90;;;;;;5025003;28;20243;-84
2021/08/04 10:26:50;;;;;;;4.50;4.10;;;22.70;99.90;;;;;;5022910;28;20238;-83
2021/08/04 10:29:21;;;;;;;5.28;3.70;;;22.50;99.90;;;;;;5024202;28;20208;-83
2021/08/04 10:31:49;;;;;;;5.28;4.03;;;22.50;99.90;;;;;;5023280;28;20291;-84
2021/08/04 10:34:16;;;;;;;8.35;4.70;;;22.50;99.90;;;;;;5025247;28;20205;-83
2021/08/04 10:36:43;;;;;;;5.70;3.92;;;22.80;99.90;;;;;;5022487;28;20224;-81
2021/08/04 10:39:12;;;;;;;5.32;3.97;;;23.20;99.90;;;;;;5023036;28;20271;-82
2021/08/04 10:41:42;;;;;;;4.47;4.03;;;23.30;99.90;;;;;;5022380;28;20208;-83
2021/08/04 10:44:22;;;;;;;7.00;4.97;;;23.00;99.90;;;;;;5023309;28;20220;-82
2021/08/04 10:46:49;;;;;;;6.10;4.25;;;22.80;99.90;;;;;;5024062;28;20296;-81
2021/08/04 10:49:24;;;;;;;5.28;4.00;;;22.80;99.90;;;;;;5024077;28;20242;-81
2021/08/04 10:52:09;;;;;;;4.07;3.35;;;22.90;99.90;;;;;;5022250;28;20306;-82
2021/08/04 10:54:36;;;;;;;9.35;4.20;;;22.70;99.90;;;;;;5024421;28;20215;-81
2021/08/04 10:57:08;;;;;;;5.40;3.70;;;22.70;99.90;;;;;;5022977;28;20292;-81
2021/08/04 10:59:37;;;;;;;7.25;4.50;;;22.60;99.90;;;;;;5019755;28;20648;-82
2021/08/04 11:02:30;;;;;;;5.85;4.00;;;22.80;99.90;;;;;;5013421;28;20675;-84
2021/08/04 11:04:57;;;;;;;5.65;3.90;;;23.10;99.90;;;;;;5006770;28;20450;-82
2021/08/04 11:07:24;;;;;;;5.72;4.10;;;23.20;99.90;;;;;;5013304;28;20272;-82
2021/08/04 11:09:59;;;;;;;5.75;4.03;;;23.30;99.90;;;;;;5013751;28;20228;-82
2021/08/04 11:12:56;;;;;;;7.65;4.65;;;24.00;99.90;;;;;;5013005;28;20218;-83
2021/08/04 11:15:30;;;;;;;5.32;4.45;;;24.00;99.90;;;;;;5009443;28;20269;-82
2021/08/04 11:18:13;;;;;;;7.22;4.40;;;24.10;99.90;;;;;;5005631;28;20213;-82
2021/08/04 11:20:56;;;;;;;5.35;3.95;;;24.30;99.90;;;;;;5005677;28;20219;-83
2021/08/04 11:23:45;;;;;;;5.78;4.28;;;23.90;99.90;;;;;;5009024;28;20218;-85
2021/08/04 11:26:33;;;;;;;4.88;3.90;;;24.30;99.90;;;;;;4996516;28;20639;-85
2021/08/04 11:29:00;;;;;;;5.28;4.10;;;24.10;99.90;;;;;;5015001;28;20209;-83
2021/08/04 11:31:29;;;;;;;6.50;3.90;;;23.80;99.90;;;;;;4998732;28;20296;-85
2021/08/04 11:34:00;;;;;;;4.93;4.22;;;23.50;99.90;;;;;;4998051;28;20215;-82
2021/08/04 11:36:31;;;;;;;5.20;4.38;;;23.60;99.90;;;;;;5003138;28;20239;-84
2021/08/04 11:39:02;;;;;;;6.85;4.30;;;23.00;99.90;;;;;;5006687;28;20228;-81
2021/08/04 11:41:36;;;;;;;7.95;4.10;;;22.70;99.90;;;;;;5004431;28;20212;-84
2021/08/04 11:44:15;;;;;;;8.90;4.72;;;22.80;99.90;;;;;;4997878;28;20799;-82
2021/08/04 11:46:46;;;;;;;4.28;3.88;;;23.30;99.90;;;;;;5008487;28;20300;-84
2021/08/04 11:49:14;;;;;;;5.32;3.95;;;23.80;99.90;;;;;;5000983;28;20663;-84
2021/08/04 11:51:48;;;;;;;6.97;3.90;;;23.90;99.90;;;;;;5003808;28;20814;-82
2021/08/04 11:54:26;;;;;;;5.88;4.50;;;24.20;99.90;;;;;;5013603;28;20269;-85
2021/08/04 11:56:53;;;;;;;4.93;4.50;;;23.80;99.90;;;;;;5013261;28;20221;-82
2021/08/04 11:59:20;;;;;;;5.47;4.60;;;24.10;99.90;;;;;;5002749;28;20273;-85
2021/08/04 12:02:00;;;;;;;7.45;4.15;;;24.30;99.90;;;;;;5006333;28;20220;-83
2021/08/04 12:04:28;;;;;;;6.70;4.32;;;24.20;99.90;;;;;;5019133;28;20691;-83
2021/08/04 12:07:12;;;;;;;5.88;4.85;;;23.80;99.90;;;;;;5012675;28;20337;-80
2021/08/04 12:09:41;;;;;;;6.15;4.30;;;23.30;99.90;;;;;;5013708;28;20227;-83
2021/08/04 12:12:13;;;;;;;7.90;4.65;;;23.50;99.90;;;;;;5019946;28;20208;-84
2021/08/04 12:14:40;;;;;;;6.85;4.50;;;24.30;99.90;;;;;;5010726;28;20663;-85
2021/08/04 12:17:09;;;;;;;5.55;5.05;;;24.20;99.90;;;;;;4999565;28;20284;-82
2021/08/04 12:19:44;;;;;;;5.35;4.85;;;24.10;99.90;;;;;;5000386;28;20229;-82
2021/08/04 12:22:18;;;;;;;5.25;4.72;;;24.30;99.90;;;;;;5004917;28;20203;-82
2021/08/04 12:24:49;;;;;;;6.93;4.63;;;24.40;99.90;;;;;;5020165;28;20480;-87
2021/08/04 12:27:29;;;;;;;4.95;3.63;;;24.20;99.90;;;;;;5014421;28;20290;-83
2021/08/04 12:30:07;;;;;;;6.43;4.07;;;24.70;99.90;;;;;;5020235;28;20292;-82
2021/08/04 12:32:49;;;;;;;4.97;4.00;;;25.50;99.90;;;;;;5013341;28;20204;-85
2021/08/04 12:35:18;;;;;;;4.38;3.63;;;24.80;99.90;;;;;;5007366;28;20296;-86
2021/08/04 12:37:45;;;;;;;5.47;3.63;;;24.60;99.90;;;;;;5004675;28;20201;-82
2021/08/04 12:40:14;;;;;;;5.30;3.30;;;24.70;99.90;;;;;;5006365;28;20238;-82
2021/08/04 12:42:41;;;;;;;7.07;3.40;;;25.10;99.90;;;;;;5014941;28;20316;-85
2021/08/04 12:45:25;;;;;;;5.70;3.47;;;24.70;99.90;;;;;;5015773;28;20216;-85
2021/08/04 12:47:59;;;;;;;7.32;3.72;;;25.10;99.90;;;;;;5011751;28;20205;-86
2021/08/04 12:50:28;;;;;;;3.78;3.17;;;25.30;99.90;;;;;;5000848;28;20276;-85
2021/08/04 12:52:56;;;;;;;4.53;3.30;;;24.90;99.90;;;;;;5023510;23;21035;-86
2021/08/04 12:55:24;;;;;;;6.20;3.30;;;25.10;99.90;;;;;;5016486;28;20570;-88
2021/08/04 12:58:09;;;;;;;5.15;3.22;;;24.90;99.90;;;;;;5031878;28;20212;-88